Terminal Aerodrome Forecast
Issued by NWS

Home | Current Version | Previous Version | Text Only | Print | Product List | Glossary On
Versions: 1 2 3 4 5 6 7 8 9 10 11 12 13
000
FTUS41 KBTV 291130
TAFRUT
TAF
KRUT 291130Z 2912/3012 13008KT P6SM FEW200
     FM291700 13008KT P6SM VCSH SCT130
     FM292000 14007KT P6SM VCSH BKN090
      AMD LTD TO CLD VIS AND WIND=

USA.gov is the U.S. government's official web portal to all federal, state and local government web resources and services.